createdAt,value
2024-03-19T00:00:06.019Z,1012.29
2024-03-19T00:01:06.707Z,1012.30
2024-03-19T00:02:07.471Z,1012.31
2024-03-19T00:03:08.129Z,1012.31
2024-03-19T00:04:08.807Z,1012.33
2024-03-19T00:05:09.501Z,1012.34
2024-03-19T00:06:10.296Z,1012.37
2024-03-19T00:07:10.983Z,1012.39
2024-03-19T00:08:11.673Z,1012.40
2024-03-19T00:09:12.376Z,1012.41
2024-03-19T00:10:13.096Z,1012.40
2024-03-19T00:11:13.804Z,1012.40
2024-03-19T00:12:14.489Z,1012.39
2024-03-19T00:13:15.189Z,1012.39
2024-03-19T00:14:15.858Z,1012.40
2024-03-19T00:15:16.612Z,1012.41
2024-03-19T00:16:17.318Z,1012.41
2024-03-19T00:17:18.011Z,1012.41
2024-03-19T00:18:18.673Z,1012.40
2024-03-19T00:19:19.357Z,1012.39
2024-03-19T00:20:20.081Z,1012.38
2024-03-19T00:21:20.752Z,1012.37
2024-03-19T00:22:21.418Z,1012.36
2024-03-19T00:23:22.090Z,1012.34
2024-03-19T00:24:22.788Z,1012.34
2024-03-19T00:25:23.467Z,1012.35
2024-03-19T00:26:24.147Z,1012.36
2024-03-19T00:27:24.844Z,1012.35
2024-03-19T00:28:25.515Z,1012.36
2024-03-19T00:29:26.256Z,1012.37
2024-03-19T00:30:26.929Z,1012.37
2024-03-19T00:31:27.610Z,1012.36
2024-03-19T00:32:28.293Z,1012.36
2024-03-19T00:33:28.982Z,1012.35
2024-03-19T00:34:29.676Z,1012.35
2024-03-19T00:35:30.425Z,1012.35
2024-03-19T00:36:31.080Z,1012.36
2024-03-19T00:37:31.762Z,1012.36
2024-03-19T00:38:32.476Z,1012.36
2024-03-19T00:39:33.175Z,1012.35
2024-03-19T00:40:33.839Z,1012.34
2024-03-19T00:41:34.776Z,1012.33
2024-03-19T00:42:35.276Z,1012.33
2024-03-19T00:43:35.967Z,1012.32
2024-03-19T00:44:36.666Z,1012.31
2024-03-19T00:45:37.329Z,1012.31
2024-03-19T00:46:38.003Z,1012.32
2024-03-19T00:47:38.746Z,1012.31
2024-03-19T00:48:39.377Z,1012.31
2024-03-19T00:49:40.203Z,1012.31
2024-03-19T00:50:40.904Z,1012.31
2024-03-19T00:51:41.571Z,1012.30
2024-03-19T00:52:42.272Z,1012.30
2024-03-19T00:53:43.015Z,1012.28
2024-03-19T00:54:43.714Z,1012.28
2024-03-19T00:55:44.378Z,1012.28
2024-03-19T00:56:45.058Z,1012.29
2024-03-19T00:57:46.127Z,1012.27
2024-03-19T00:58:46.808Z,1012.27
2024-03-19T00:59:47.484Z,1012.27
2024-03-19T01:00:48.184Z,1012.26
2024-03-19T01:01:48.938Z,1012.25
2024-03-19T01:02:49.582Z,1012.25
2024-03-19T01:03:50.266Z,1012.25
2024-03-19T01:04:55.948Z,1012.24
2024-03-19T01:05:52.627Z,1012.21
2024-03-19T01:06:52.313Z,1012.20
2024-03-19T01:07:53.054Z,1012.20
2024-03-19T01:08:53.689Z,1012.20
2024-03-19T01:09:54.402Z,1012.20
2024-03-19T01:10:55.053Z,1012.21
2024-03-19T01:11:55.770Z,1012.22
2024-03-19T01:12:56.433Z,1012.22
2024-03-19T01:13:57.113Z,1012.21
2024-03-19T01:14:57.795Z,1012.19
2024-03-19T01:15:58.490Z,1012.18
2024-03-19T01:16:59.220Z,1012.16
2024-03-19T01:17:59.909Z,1012.16
2024-03-19T01:19:00.582Z,1012.16
2024-03-19T01:20:01.474Z,1012.15
2024-03-19T01:21:02.181Z,1012.15
2024-03-19T01:22:02.861Z,1012.15
2024-03-19T01:23:03.542Z,1012.16
2024-03-19T01:24:04.353Z,1012.16
2024-03-19T01:25:05.073Z,1012.16
2024-03-19T01:26:06.649Z,1012.17
2024-03-19T01:27:06.332Z,1012.17
2024-03-19T01:28:07.019Z,1012.16
2024-03-19T01:29:07.697Z,1012.15
2024-03-19T01:30:08.397Z,1012.16
2024-03-19T01:31:09.085Z,1012.16
2024-03-19T01:32:09.811Z,1012.17
2024-03-19T01:33:10.460Z,1012.17
2024-03-19T01:34:11.158Z,1012.18
2024-03-19T01:35:11.828Z,1012.16
2024-03-19T01:36:12.573Z,1012.15
2024-03-19T01:37:13.214Z,1012.13
2024-03-19T01:38:13.893Z,1012.11
2024-03-19T01:39:14.639Z,1012.09
2024-03-19T01:40:15.338Z,1012.09
2024-03-19T01:41:16.001Z,1012.09
2024-03-19T01:42:16.687Z,1012.11
2024-03-19T01:43:17.358Z,1012.12
2024-03-19T01:44:18.066Z,1012.12
2024-03-19T01:45:18.738Z,1012.12
2024-03-19T01:46:19.420Z,1012.12
2024-03-19T01:47:20.139Z,1012.12
2024-03-19T01:48:20.783Z,1012.12
2024-03-19T01:49:21.546Z,1012.12
2024-03-19T01:50:22.249Z,1012.13
2024-03-19T01:51:22.960Z,1012.13
2024-03-19T01:52:23.640Z,1012.14
2024-03-19T01:53:24.345Z,1012.14
2024-03-19T01:54:25.039Z,1012.13
2024-03-19T01:55:25.737Z,1012.12
2024-03-19T01:56:26.398Z,1012.10
2024-03-19T01:57:27.116Z,1012.10
2024-03-19T01:58:27.787Z,1012.10
2024-03-19T01:59:28.461Z,1012.10
2024-03-19T02:00:29.159Z,1012.10
2024-03-19T02:01:29.894Z,1012.09
2024-03-19T02:02:30.657Z,1012.09
2024-03-19T02:03:31.348Z,1012.09
2024-03-19T02:04:32.044Z,1012.09
2024-03-19T02:05:32.716Z,1012.08
2024-03-19T02:06:33.392Z,1012.07
2024-03-19T02:07:34.118Z,1012.06
2024-03-19T02:08:34.898Z,1012.06
2024-03-19T02:09:35.471Z,1012.06
2024-03-19T02:10:36.183Z,1012.06
2024-03-19T02:11:36.910Z,1012.05
2024-03-19T02:12:37.819Z,1012.03
2024-03-19T02:13:38.434Z,1012.01
2024-03-19T02:14:39.141Z,1011.99
2024-03-19T02:15:39.812Z,1011.98
2024-03-19T02:16:40.483Z,1011.95
2024-03-19T02:17:41.193Z,1011.94
2024-03-19T02:18:41.864Z,1011.93
2024-03-19T02:19:42.525Z,1011.92
2024-03-19T02:20:43.209Z,1011.90
2024-03-19T02:21:43.902Z,1011.88
2024-03-19T02:22:44.614Z,1011.87
2024-03-19T02:23:45.297Z,1011.87
2024-03-19T02:24:45.992Z,1011.86
2024-03-19T02:25:46.703Z,1011.86
2024-03-19T02:26:47.385Z,1011.85
2024-03-19T02:27:48.070Z,1011.85
2024-03-19T02:28:48.757Z,1011.86
2024-03-19T02:29:49.435Z,1011.87
2024-03-19T02:30:50.124Z,1011.86
2024-03-19T02:31:50.862Z,1011.86
2024-03-19T02:32:51.503Z,1011.85
2024-03-19T02:33:52.175Z,1011.85
2024-03-19T02:34:52.859Z,1011.84
2024-03-19T02:35:53.577Z,1011.84
2024-03-19T02:36:54.280Z,1011.83
2024-03-19T02:37:54.947Z,1011.81
2024-03-19T02:38:55.658Z,1011.80
2024-03-19T02:39:56.332Z,1011.79
2024-03-19T02:40:57.029Z,1011.78
2024-03-19T02:41:57.716Z,1011.76
2024-03-19T02:42:58.376Z,1011.76
2024-03-19T02:43:59.064Z,1011.74
2024-03-19T02:44:59.789Z,1011.72
2024-03-19T02:46:00.468Z,1011.70
2024-03-19T02:47:01.143Z,1011.70
2024-03-19T02:48:01.830Z,1011.69
2024-03-19T02:49:02.515Z,1011.68
2024-03-19T02:50:03.326Z,1011.68
2024-03-19T02:51:04.022Z,1011.68
2024-03-19T02:52:04.699Z,1011.68
2024-03-19T02:53:05.369Z,1011.68
2024-03-19T02:54:06.168Z,1011.68
2024-03-19T02:55:06.762Z,1011.67
2024-03-19T02:56:07.440Z,1011.67
2024-03-19T02:57:08.217Z,1011.67
2024-03-19T02:58:08.889Z,1011.68
2024-03-19T02:59:09.616Z,1011.68
2024-03-19T03:00:10.363Z,1011.69
2024-03-19T03:01:11.134Z,1011.70
2024-03-19T03:02:11.848Z,1011.71
2024-03-19T03:03:12.509Z,1011.70
2024-03-19T03:04:13.194Z,1011.70
2024-03-19T03:05:13.881Z,1011.70
2024-03-19T03:06:14.564Z,1011.70
2024-03-19T03:07:15.238Z,1011.72
2024-03-19T03:08:15.924Z,1011.72
2024-03-19T03:09:16.632Z,1011.73
2024-03-19T03:10:17.293Z,1011.74
2024-03-19T03:11:17.988Z,1011.76
2024-03-19T03:12:18.672Z,1011.77
2024-03-19T03:13:19.346Z,1011.79
2024-03-19T03:14:20.126Z,1011.82
2024-03-19T03:15:20.802Z,1011.84
2024-03-19T03:16:21.458Z,1011.84
2024-03-19T03:17:22.146Z,1011.85
2024-03-19T03:18:22.839Z,1011.84
2024-03-19T03:19:23.523Z,1011.85
2024-03-19T03:20:24.294Z,1011.85
2024-03-19T03:21:24.903Z,1011.86
2024-03-19T03:22:25.585Z,1011.84
2024-03-19T03:23:26.278Z,1011.83
2024-03-19T03:24:27.106Z,1011.83
2024-03-19T03:25:27.768Z,1011.82
2024-03-19T03:26:28.473Z,1011.82
2024-03-19T03:27:29.174Z,1011.83
2024-03-19T03:28:29.852Z,1011.84
2024-03-19T03:29:30.575Z,1011.85
2024-03-19T03:30:31.350Z,1011.86
2024-03-19T03:31:32.088Z,1011.89
2024-03-19T03:32:32.896Z,1011.90
2024-03-19T03:33:33.561Z,1011.91
2024-03-19T03:34:34.273Z,1011.93
2024-03-19T03:35:34.941Z,1011.96
2024-03-19T03:36:35.674Z,1011.97
2024-03-19T03:37:36.315Z,1011.97
2024-03-19T03:38:37.025Z,1011.98
2024-03-19T03:39:37.703Z,1011.97
2024-03-19T03:40:38.402Z,1011.98
2024-03-19T03:41:39.284Z,1011.98
2024-03-19T03:42:55.939Z,1011.96
2024-03-19T03:43:40.603Z,1011.99
2024-03-19T03:44:41.297Z,1011.97
2024-03-19T03:45:41.969Z,1011.95
2024-03-19T03:46:42.712Z,1011.92
2024-03-19T03:47:43.542Z,1011.94
2024-03-19T03:48:44.200Z,1011.93
2024-03-19T03:49:44.870Z,1011.93
2024-03-19T03:50:45.564Z,1011.93
2024-03-19T03:51:46.252Z,1011.92
2024-03-19T03:52:46.950Z,1011.92
2024-03-19T03:53:47.612Z,1011.92
2024-03-19T03:54:48.373Z,1011.91
2024-03-19T03:55:49.039Z,1011.93
2024-03-19T03:56:49.730Z,1011.93
2024-03-19T03:57:50.386Z,1011.95
2024-03-19T03:58:51.060Z,1011.94
2024-03-19T03:59:51.735Z,1011.94
2024-03-19T04:00:52.486Z,1011.95
2024-03-19T04:01:53.110Z,1011.96
2024-03-19T04:02:53.813Z,1011.98
2024-03-19T04:03:54.472Z,1011.97
2024-03-19T04:04:55.165Z,1011.98
2024-03-19T04:05:55.858Z,1011.99
2024-03-19T04:06:56.537Z,1012.00
2024-03-19T04:07:57.264Z,1012.00
2024-03-19T04:08:57.913Z,1011.99
2024-03-19T04:09:58.600Z,1012.00
2024-03-19T04:10:59.299Z,1012.02
2024-03-19T04:12:00.001Z,1012.03
2024-03-19T04:13:00.675Z,1012.06
2024-03-19T04:14:01.366Z,1012.08
2024-03-19T04:15:02.068Z,1012.10
2024-03-19T04:16:02.769Z,1012.12
2024-03-19T04:17:03.477Z,1012.13
2024-03-19T04:18:04.121Z,1012.14
2024-03-19T04:19:04.809Z,1012.15
2024-03-19T04:20:05.503Z,1012.15
2024-03-19T04:21:06.304Z,1012.16
2024-03-19T04:22:07.012Z,1012.15
2024-03-19T04:23:07.656Z,1012.15
2024-03-19T04:24:08.353Z,1012.15
2024-03-19T04:25:09.030Z,1012.16
2024-03-19T04:26:09.717Z,1012.16
2024-03-19T04:27:10.425Z,1012.16
2024-03-19T04:28:11.211Z,1012.17
2024-03-19T04:29:11.908Z,1012.17
2024-03-19T04:30:12.584Z,1012.16
2024-03-19T04:31:13.266Z,1012.15
2024-03-19T04:32:13.943Z,1012.16
2024-03-19T04:33:14.768Z,1012.16
2024-03-19T04:34:15.457Z,1012.19
2024-03-19T04:35:16.160Z,1012.18
2024-03-19T04:36:16.817Z,1012.18
2024-03-19T04:37:17.529Z,1012.20
2024-03-19T04:38:18.242Z,1012.22
2024-03-19T04:39:18.937Z,1012.24
2024-03-19T04:40:19.723Z,1012.26
2024-03-19T04:41:20.398Z,1012.27
2024-03-19T04:42:21.113Z,1012.29
2024-03-19T04:43:21.795Z,1012.30
2024-03-19T04:44:22.470Z,1012.31
2024-03-19T04:45:23.155Z,1012.32
2024-03-19T04:46:23.875Z,1012.33
2024-03-19T04:47:24.541Z,1012.32
2024-03-19T04:48:25.226Z,1012.33
2024-03-19T04:49:25.909Z,1012.34
2024-03-19T04:50:26.585Z,1012.32
2024-03-19T04:51:27.262Z,1012.33
2024-03-19T04:52:27.971Z,1012.32
2024-03-19T04:53:28.639Z,1012.31
2024-03-19T04:54:29.442Z,1012.31
2024-03-19T04:55:30.132Z,1012.30
2024-03-19T04:56:30.818Z,1012.30
2024-03-19T04:57:31.544Z,1012.30
2024-03-19T04:58:32.276Z,1012.31
2024-03-19T04:59:33.001Z,1012.31
2024-03-19T05:00:33.652Z,1012.31
2024-03-19T05:01:34.353Z,1012.30
2024-03-19T05:02:35.020Z,1012.32
2024-03-19T05:03:35.775Z,1012.32
2024-03-19T05:04:36.382Z,1012.32
2024-03-19T05:05:37.016Z,1012.32
2024-03-19T05:06:38.240Z,1012.33
2024-03-19T05:07:38.384Z,1012.34
2024-03-19T05:08:39.068Z,1012.36
2024-03-19T05:09:39.894Z,1012.36
2024-03-19T05:10:40.555Z,1012.37
2024-03-19T05:11:43.729Z,1012.38
2024-03-19T05:12:41.866Z,1012.38
2024-03-19T05:13:42.530Z,1012.39
2024-03-19T05:14:43.214Z,1012.39
2024-03-19T05:15:43.919Z,1012.40
2024-03-19T05:16:44.474Z,1012.41
2024-03-19T05:17:45.071Z,1012.42
2024-03-19T05:18:45.620Z,1012.42
2024-03-19T05:19:46.204Z,1012.42
2024-03-19T05:20:46.807Z,1012.42
2024-03-19T05:21:49.325Z,1012.42
2024-03-19T05:22:47.944Z,1012.42
2024-03-19T05:23:48.550Z,1012.43
2024-03-19T05:24:49.133Z,1012.44
2024-03-19T05:25:49.714Z,1012.45
2024-03-19T05:26:50.284Z,1012.46
2024-03-19T05:27:50.908Z,1012.49
2024-03-19T05:28:51.424Z,1012.51
2024-03-19T05:29:52.070Z,1012.53
2024-03-19T05:30:52.615Z,1012.54
2024-03-19T05:31:53.189Z,1012.55
2024-03-19T05:32:53.759Z,1012.56
2024-03-19T05:33:54.330Z,1012.56
2024-03-19T05:34:55.572Z,1012.58
2024-03-19T05:35:55.518Z,1012.60
2024-03-19T05:36:56.086Z,1012.61
2024-03-19T05:37:56.680Z,1012.62
2024-03-19T05:38:57.260Z,1012.63
2024-03-19T05:39:57.884Z,1012.65
2024-03-19T05:40:58.582Z,1012.65
2024-03-19T05:41:59.127Z,1012.66
2024-03-19T05:42:59.845Z,1012.66
2024-03-19T05:44:02.010Z,1012.65
2024-03-19T05:45:01.004Z,1012.65
2024-03-19T05:46:01.576Z,1012.65
2024-03-19T05:47:02.152Z,1012.66
2024-03-19T05:48:02.759Z,1012.68
2024-03-19T05:49:03.348Z,1012.71
2024-03-19T05:50:03.992Z,1012.73
2024-03-19T05:51:04.596Z,1012.76
2024-03-19T05:52:05.135Z,1012.78
2024-03-19T05:53:05.721Z,1012.79
2024-03-19T05:54:06.390Z,1012.81
2024-03-19T05:55:07.108Z,1012.82
2024-03-19T05:56:07.644Z,1012.83
2024-03-19T05:57:08.265Z,1012.83
2024-03-19T05:58:08.830Z,1012.83
2024-03-19T05:59:09.393Z,1012.83
2024-03-19T06:00:10.116Z,1012.83
2024-03-19T06:01:10.687Z,1012.82
2024-03-19T06:02:11.283Z,1012.82
2024-03-19T06:03:11.944Z,1012.83
2024-03-19T06:04:12.644Z,1012.84
2024-03-19T06:05:13.209Z,1012.86
2024-03-19T06:06:14.618Z,1012.87
2024-03-19T06:07:14.719Z,1012.89
2024-03-19T06:08:15.334Z,1012.87
2024-03-19T06:09:16.012Z,1012.87
2024-03-19T06:10:16.601Z,1012.86
2024-03-19T06:11:17.234Z,1012.86
2024-03-19T06:12:17.762Z,1012.88
2024-03-19T06:13:18.352Z,1012.87
2024-03-19T06:14:18.913Z,1012.89
2024-03-19T06:15:19.504Z,1012.91
2024-03-19T06:16:20.126Z,1012.94
2024-03-19T06:17:20.720Z,1012.95
2024-03-19T06:18:21.343Z,1012.95
2024-03-19T06:19:26.206Z,1012.96
2024-03-19T06:20:22.643Z,1012.93
2024-03-19T06:21:23.339Z,1012.92
2024-03-19T06:22:23.857Z,1012.91
2024-03-19T06:23:24.423Z,1012.89
2024-03-19T06:24:25.005Z,1012.88
2024-03-19T06:25:25.586Z,1012.88
2024-03-19T06:26:26.291Z,1012.88
2024-03-19T06:27:26.863Z,1012.89
2024-03-19T06:28:27.463Z,1012.88
2024-03-19T06:29:28.168Z,1012.88
2024-03-19T06:30:28.742Z,1012.90
2024-03-19T06:31:29.307Z,1012.93
2024-03-19T06:32:30.028Z,1012.96
2024-03-19T06:33:30.609Z,1012.99
2024-03-19T06:34:31.194Z,1013.02
2024-03-19T06:35:31.800Z,1013.02
2024-03-19T06:36:32.380Z,1013.01
2024-03-19T06:37:32.986Z,1013.00
2024-03-19T06:38:33.676Z,1012.99
2024-03-19T06:39:34.451Z,1012.98
2024-03-19T06:40:35.138Z,1012.98
2024-03-19T06:41:35.719Z,1012.98
2024-03-19T06:42:36.299Z,1012.98
2024-03-19T06:43:36.934Z,1012.99
2024-03-19T06:44:37.577Z,1012.97
2024-03-19T06:45:38.150Z,1012.98
2024-03-19T06:46:38.972Z,1012.97
2024-03-19T06:47:39.531Z,1012.99
2024-03-19T06:48:40.107Z,1013.01
2024-03-19T06:49:40.736Z,1013.03
2024-03-19T06:50:41.287Z,1013.05
2024-03-19T06:51:41.899Z,1013.06
2024-03-19T06:52:42.443Z,1013.07
2024-03-19T06:53:43.032Z,1013.08
2024-03-19T06:54:45.126Z,1013.08
2024-03-19T06:55:44.204Z,1013.08
2024-03-19T06:56:44.741Z,1013.08
2024-03-19T06:57:45.440Z,1013.09
2024-03-19T06:58:46.045Z,1013.09
2024-03-19T06:59:46.605Z,1013.09
2024-03-19T07:00:47.200Z,1013.10
2024-03-19T07:01:47.761Z,1013.10
2024-03-19T07:02:48.359Z,1013.10
2024-03-19T07:03:56.683Z,1013.11
2024-03-19T07:04:49.487Z,1013.12
2024-03-19T07:05:50.103Z,1013.14
2024-03-19T07:06:50.636Z,1013.14
2024-03-19T07:07:51.243Z,1013.15
2024-03-19T07:08:51.829Z,1013.16
2024-03-19T07:09:52.394Z,1013.16
2024-03-19T07:10:52.985Z,1013.17
2024-03-19T07:11:53.576Z,1013.17
2024-03-19T07:12:54.211Z,1013.16
2024-03-19T07:13:54.930Z,1013.16
2024-03-19T07:14:55.529Z,1013.17
2024-03-19T07:15:56.127Z,1013.18
2024-03-19T07:16:56.698Z,1013.18
2024-03-19T07:17:57.395Z,1013.19
2024-03-19T07:18:57.968Z,1013.19
2024-03-19T07:19:58.541Z,1013.19
2024-03-19T07:20:59.115Z,1013.19
2024-03-19T07:21:59.737Z,1013.19
2024-03-19T07:23:00.336Z,1013.20
2024-03-19T07:24:01.038Z,1013.22
2024-03-19T07:25:01.607Z,1013.24
2024-03-19T07:26:02.197Z,1013.26
2024-03-19T07:27:03.979Z,1013.27
2024-03-19T07:28:03.424Z,1013.28
2024-03-19T07:29:04.061Z,1013.29
2024-03-19T07:30:04.630Z,1013.29
2024-03-19T07:31:05.206Z,1013.29
2024-03-19T07:32:05.779Z,1013.30
2024-03-19T07:33:06.383Z,1013.31
2024-03-19T07:34:06.920Z,1013.33
2024-03-19T07:35:07.557Z,1013.34
2024-03-19T07:36:08.197Z,1013.34
2024-03-19T07:37:08.876Z,1013.34
2024-03-19T07:38:09.326Z,1013.34
2024-03-19T07:39:09.812Z,1013.34
2024-03-19T07:40:10.403Z,1013.36
2024-03-19T07:41:11.066Z,1013.37
2024-03-19T07:42:11.692Z,1013.37
2024-03-19T07:43:12.229Z,1013.39
2024-03-19T07:44:12.814Z,1013.40
2024-03-19T07:45:13.448Z,1013.41
2024-03-19T07:46:14.075Z,1013.42
2024-03-19T07:47:14.792Z,1013.43
2024-03-19T07:48:15.501Z,1013.44
2024-03-19T07:49:16.083Z,1013.45
2024-03-19T07:50:16.698Z,1013.45
2024-03-19T07:51:17.318Z,1013.46
2024-03-19T07:52:17.984Z,1013.46
2024-03-19T07:53:18.686Z,1013.46
2024-03-19T07:54:19.289Z,1013.46
2024-03-19T07:55:20.031Z,1013.46
2024-03-19T07:56:20.507Z,1013.46
2024-03-19T07:57:21.082Z,1013.47
2024-03-19T07:58:21.662Z,1013.48
2024-03-19T07:59:22.277Z,1013.50
2024-03-19T08:00:22.946Z,1013.50
2024-03-19T08:01:23.546Z,1013.52
2024-03-19T08:02:24.133Z,1013.53
2024-03-19T08:03:24.761Z,1013.55
2024-03-19T08:04:25.297Z,1013.56
2024-03-19T08:05:27.767Z,1013.57
2024-03-19T08:06:26.469Z,1013.58
2024-03-19T08:07:27.159Z,1013.58
2024-03-19T08:08:27.752Z,1013.59
2024-03-19T08:09:28.370Z,1013.60
2024-03-19T08:10:28.911Z,1013.60
2024-03-19T08:11:29.479Z,1013.61
2024-03-19T08:12:30.060Z,1013.61
2024-03-19T08:13:30.659Z,1013.61
2024-03-19T08:14:31.249Z,1013.60
2024-03-19T08:15:31.918Z,1013.60
2024-03-19T08:16:32.713Z,1013.60
2024-03-19T08:17:33.439Z,1013.61
2024-03-19T08:18:34.014Z,1013.61
2024-03-19T08:19:34.588Z,1013.63
2024-03-19T08:20:35.159Z,1013.64
2024-03-19T08:21:35.746Z,1013.65
2024-03-19T08:22:36.562Z,1013.65
2024-03-19T08:23:36.934Z,1013.64
2024-03-19T08:24:37.629Z,1013.64
2024-03-19T08:25:38.193Z,1013.63
2024-03-19T08:26:38.828Z,1013.63
2024-03-19T08:27:39.539Z,1013.63
2024-03-19T08:28:40.112Z,1013.64
2024-03-19T08:29:41.236Z,1013.65
2024-03-19T08:30:41.258Z,1013.66
2024-03-19T08:31:41.874Z,1013.67
2024-03-19T08:32:42.444Z,1013.68
2024-03-19T08:33:43.014Z,1013.68
2024-03-19T08:34:43.592Z,1013.68
2024-03-19T08:35:44.344Z,1013.68
2024-03-19T08:36:45.332Z,1013.68
2024-03-19T08:37:45.524Z,1013.67
2024-03-19T08:38:46.188Z,1013.66
2024-03-19T08:39:46.778Z,1013.64
2024-03-19T08:40:47.400Z,1013.61
2024-03-19T08:41:47.950Z,1013.60
2024-03-19T08:42:48.539Z,1013.59
2024-03-19T08:43:49.127Z,1013.61
2024-03-19T08:44:49.710Z,1013.62
2024-03-19T08:45:50.300Z,1013.64
2024-03-19T08:46:50.870Z,1013.64
2024-03-19T08:47:51.442Z,1013.65
2024-03-19T08:48:52.003Z,1013.65
2024-03-19T08:49:52.737Z,1013.65
2024-03-19T08:50:53.337Z,1013.66
2024-03-19T08:51:53.971Z,1013.67
2024-03-19T08:52:54.532Z,1013.68
2024-03-19T08:53:55.147Z,1013.68
2024-03-19T08:54:55.731Z,1013.69
2024-03-19T08:55:56.281Z,1013.68
2024-03-19T08:56:56.841Z,1013.70
2024-03-19T08:57:57.453Z,1013.71
2024-03-19T08:58:58.078Z,1013.73
2024-03-19T08:59:58.648Z,1013.75
2024-03-19T09:00:59.208Z,1013.74
2024-03-19T09:01:59.824Z,1013.77
2024-03-19T09:03:00.553Z,1013.76
2024-03-19T09:04:01.206Z,1013.77
2024-03-19T09:05:01.803Z,1013.78
2024-03-19T09:06:02.376Z,1013.78
2024-03-19T09:07:02.926Z,1013.78
2024-03-19T09:08:03.506Z,1013.78
2024-03-19T09:09:04.108Z,1013.78
2024-03-19T09:10:04.686Z,1013.79
2024-03-19T09:11:05.264Z,1013.80
2024-03-19T09:12:05.991Z,1013.80
2024-03-19T09:13:06.567Z,1013.79
2024-03-19T09:14:07.177Z,1013.78
2024-03-19T09:15:07.752Z,1013.77
2024-03-19T09:16:08.338Z,1013.77
2024-03-19T09:17:08.886Z,1013.77
2024-03-19T09:18:09.582Z,1013.77
2024-03-19T09:19:10.074Z,1013.77
2024-03-19T09:20:10.665Z,1013.78
2024-03-19T09:21:11.235Z,1013.78
2024-03-19T09:22:11.814Z,1013.77
2024-03-19T09:23:12.405Z,1013.78
2024-03-19T09:24:12.977Z,1013.79
2024-03-19T09:25:13.551Z,1013.80
2024-03-19T09:26:14.241Z,1013.80
2024-03-19T09:27:14.890Z,1013.79
2024-03-19T09:28:15.464Z,1013.80
2024-03-19T09:29:16.036Z,1013.79
2024-03-19T09:30:16.623Z,1013.79
2024-03-19T09:31:17.244Z,1013.81
2024-03-19T09:32:17.955Z,1013.82
2024-03-19T09:33:18.531Z,1013.82
2024-03-19T09:34:19.095Z,1013.81
2024-03-19T09:35:19.790Z,1013.79
2024-03-19T09:36:20.380Z,1013.76
2024-03-19T09:37:20.978Z,1013.73
2024-03-19T09:38:21.526Z,1013.72
2024-03-19T09:39:22.119Z,1013.70
2024-03-19T09:40:22.672Z,1013.68
2024-03-19T09:41:23.258Z,1013.67
2024-03-19T09:42:23.848Z,1013.66
2024-03-19T09:43:24.416Z,1013.65
2024-03-19T09:44:24.984Z,1013.64
2024-03-19T09:45:25.603Z,1013.63
2024-03-19T09:46:26.225Z,1013.60
2024-03-19T09:47:26.762Z,1013.58
2024-03-19T09:48:27.332Z,1013.57
2024-03-19T09:49:27.895Z,1013.54
2024-03-19T09:50:28.481Z,1013.52
2024-03-19T09:51:29.195Z,1013.50
2024-03-19T09:52:29.875Z,1013.48
2024-03-19T09:53:31.260Z,1013.46
2024-03-19T09:54:31.313Z,1013.47
2024-03-19T09:55:31.905Z,1013.47
2024-03-19T09:56:32.478Z,1013.48
2024-03-19T09:57:33.175Z,1013.48
2024-03-19T09:58:33.748Z,1013.49
2024-03-19T09:59:34.340Z,1013.47
2024-03-19T10:00:34.930Z,1013.45
2024-03-19T10:01:35.598Z,1013.41
2024-03-19T10:02:36.199Z,1013.38
2024-03-19T10:03:36.743Z,1013.38
2024-03-19T10:04:37.398Z,1013.35
2024-03-19T10:05:37.944Z,1013.35
2024-03-19T10:06:38.498Z,1013.34
2024-03-19T10:07:39.239Z,1013.32
2024-03-19T10:08:40.006Z,1013.34
2024-03-19T10:09:40.566Z,1013.33
2024-03-19T10:10:41.159Z,1013.34
2024-03-19T10:11:43.188Z,1013.35
2024-03-19T10:12:42.287Z,1013.35
2024-03-19T10:13:42.863Z,1013.35
2024-03-19T10:14:43.461Z,1013.35
2024-03-19T10:15:44.045Z,1013.33
2024-03-19T10:16:44.619Z,1013.31
2024-03-19T10:17:45.220Z,1013.31
2024-03-19T10:18:45.815Z,1013.31
2024-03-19T10:19:46.382Z,1013.29
2024-03-19T10:20:47.022Z,1013.29
2024-03-19T10:21:47.704Z,1013.28
2024-03-19T10:22:48.293Z,1013.29
2024-03-19T10:23:48.939Z,1013.29
2024-03-19T10:24:49.470Z,1013.29
2024-03-19T10:25:52.467Z,1013.29
2024-03-19T10:26:50.702Z,1013.30
2024-03-19T10:27:51.355Z,1013.31
2024-03-19T10:28:51.953Z,1013.29
2024-03-19T10:29:52.632Z,1013.32
2024-03-19T10:30:53.114Z,1013.32
2024-03-19T10:31:53.799Z,1013.32
2024-03-19T10:32:54.350Z,1013.32
2024-03-19T10:33:54.907Z,1013.31
2024-03-19T10:34:55.597Z,1013.31
2024-03-19T10:35:56.204Z,1013.31
2024-03-19T10:36:56.739Z,1013.30
2024-03-19T10:37:59.188Z,1013.29
2024-03-19T10:38:58.138Z,1013.28
2024-03-19T10:39:58.570Z,1013.28
2024-03-19T10:40:59.145Z,1013.25
2024-03-19T10:41:59.730Z,1013.24
2024-03-19T10:43:00.355Z,1013.23
2024-03-19T10:44:00.881Z,1013.22
2024-03-19T10:45:01.500Z,1013.21
2024-03-19T10:46:02.244Z,1013.20
2024-03-19T10:47:02.929Z,1013.18
2024-03-19T10:48:03.468Z,1013.18
2024-03-19T10:49:04.112Z,1013.16
2024-03-19T10:50:04.752Z,1013.15
2024-03-19T10:51:05.330Z,1013.15
2024-03-19T10:52:09.794Z,1013.14
2024-03-19T10:53:06.589Z,1013.14
2024-03-19T10:54:07.103Z,1013.13
2024-03-19T10:55:07.760Z,1013.14
2024-03-19T10:56:08.280Z,1013.15
2024-03-19T10:57:08.882Z,1013.16
2024-03-19T10:58:09.432Z,1013.17
2024-03-19T10:59:10.149Z,1013.19
2024-03-19T11:00:10.621Z,1013.19
2024-03-19T11:01:12.860Z,1013.21
2024-03-19T11:02:11.839Z,1013.22
2024-03-19T11:03:12.425Z,1013.22
2024-03-19T11:04:13.126Z,1013.22
2024-03-19T11:05:13.709Z,1013.22
2024-03-19T11:06:14.293Z,1013.21
2024-03-19T11:07:14.994Z,1013.22
2024-03-19T11:08:15.591Z,1013.22
2024-03-19T11:09:16.155Z,1013.23
2024-03-19T11:10:16.749Z,1013.22
2024-03-19T11:11:17.451Z,1013.22
2024-03-19T11:12:18.009Z,1013.22
2024-03-19T11:13:18.582Z,1013.22
2024-03-19T11:14:19.187Z,1013.22
2024-03-19T11:15:19.782Z,1013.20
2024-03-19T11:16:20.365Z,1013.20
2024-03-19T11:17:20.947Z,1013.19
2024-03-19T11:18:21.519Z,1013.18
2024-03-19T11:19:22.116Z,1013.20
2024-03-19T11:20:22.905Z,1013.19
2024-03-19T11:21:23.539Z,1013.18
2024-03-19T11:22:24.111Z,1013.15
2024-03-19T11:23:24.707Z,1013.14
2024-03-19T11:24:25.271Z,1013.15
2024-03-19T11:25:25.841Z,1013.13
2024-03-19T11:26:26.424Z,1013.11
2024-03-19T11:27:27.112Z,1013.10
2024-03-19T11:28:27.708Z,1013.10
2024-03-19T11:29:28.289Z,1013.10
2024-03-19T11:30:28.925Z,1013.09
2024-03-19T11:31:29.513Z,1013.08
2024-03-19T11:32:30.089Z,1013.07
2024-03-19T11:33:30.859Z,1013.09
2024-03-19T11:34:31.541Z,1013.09
2024-03-19T11:35:32.116Z,1013.10
2024-03-19T11:36:32.688Z,1013.09
2024-03-19T11:37:33.275Z,1013.08
2024-03-19T11:38:33.866Z,1013.05
2024-03-19T11:39:34.599Z,1013.05
2024-03-19T11:40:35.134Z,1013.05
2024-03-19T11:41:40.585Z,1013.05
2024-03-19T11:42:36.299Z,1013.05
2024-03-19T11:43:36.863Z,1013.06
2024-03-19T11:44:37.492Z,1013.06
2024-03-19T11:45:38.204Z,1013.07
2024-03-19T11:46:38.738Z,1013.07
2024-03-19T11:47:39.323Z,1013.05
2024-03-19T11:48:39.913Z,1013.03
2024-03-19T11:49:40.592Z,1013.03
2024-03-19T11:50:41.171Z,1013.03
2024-03-19T11:51:41.764Z,1013.03
2024-03-19T11:52:42.405Z,1013.04
2024-03-19T11:53:42.971Z,1013.02
2024-03-19T11:54:43.552Z,1013.01
2024-03-19T11:55:44.129Z,1013.01
2024-03-19T11:56:44.746Z,1012.98
2024-03-19T11:57:45.304Z,1012.97
2024-03-19T11:58:45.913Z,1012.97
2024-03-19T11:59:46.478Z,1012.97
2024-03-19T12:00:47.111Z,1012.98
2024-03-19T12:01:47.741Z,1012.97
2024-03-19T12:02:48.439Z,1012.95
2024-03-19T12:03:49.020Z,1012.95
2024-03-19T12:04:49.610Z,1012.95
2024-03-19T12:05:50.200Z,1012.93
2024-03-19T12:06:50.793Z,1012.96
2024-03-19T12:07:51.388Z,1012.94
2024-03-19T12:08:51.960Z,1012.93
2024-03-19T12:09:52.650Z,1012.95
2024-03-19T12:10:53.291Z,1012.94
2024-03-19T12:11:53.984Z,1012.90
2024-03-19T12:12:54.680Z,1012.89